Time;durP1;ratioP1;P1;durP2;ratioP2;P2;SDS_P1;SDS_P2;PMS_P1;PMS_P2;Temp;Humidity;BMP_temperature;BMP_pressure;BME280_temperature;BME280_humidity;BME280_pressure;Samples;Min_cycle;Max_cycle;Signal;HPM_P1;HPM_P2
2021/03/18 00:00:15;;;;;;;38.03;21.25;;;0.40;99.90;;;;;;5073031;28;20048;-64
2021/03/18 00:02:41;;;;;;;38.78;22.00;;;0.30;99.90;;;;;;5073280;28;20024;-64
2021/03/18 00:05:08;;;;;;;39.53;21.13;;;0.30;99.90;;;;;;5071730;28;20036;-64
2021/03/18 00:07:34;;;;;;;38.47;22.15;;;0.30;99.90;;;;;;5073552;28;20029;-64
2021/03/18 00:10:00;;;;;;;38.05;21.98;;;0.20;99.90;;;;;;5073184;28;20483;-64
2021/03/18 00:12:25;;;;;;;43.22;23.02;;;0.20;99.90;;;;;;5073472;28;20111;-64
2021/03/18 00:14:51;;;;;;;45.22;23.63;;;0.20;99.90;;;;;;5072847;28;20051;-64
2021/03/18 00:17:17;;;;;;;43.85;23.77;;;0.10;99.90;;;;;;5073441;28;20025;-64
2021/03/18 00:19:42;;;;;;;41.63;23.73;;;0.10;99.90;;;;;;5073149;28;20025;-64
2021/03/18 00:22:08;;;;;;;43.90;22.52;;;0.10;99.90;;;;;;5074519;28;20029;-63
2021/03/18 00:24:33;;;;;;;45.67;23.70;;;0.00;99.90;;;;;;5076732;28;20036;-64
2021/03/18 00:26:59;;;;;;;46.35;22.67;;;0.00;99.90;;;;;;5076390;28;20025;-64
2021/03/18 00:29:24;;;;;;;46.92;23.65;;;0.00;99.90;;;;;;5076897;28;20025;-63
2021/03/18 00:31:51;;;;;;;48.45;24.10;;;0.10;99.90;;;;;;5076863;28;20032;-64
2021/03/18 00:34:16;;;;;;;52.90;24.08;;;0.10;99.90;;;;;;5074952;28;20060;-64
2021/03/18 00:36:43;;;;;;;49.92;25.83;;;0.20;99.90;;;;;;5076757;28;20466;-64
2021/03/18 00:39:09;;;;;;;46.38;23.38;;;0.10;99.90;;;;;;5076465;28;20133;-64
2021/03/18 00:41:35;;;;;;;42.00;22.35;;;0.10;99.90;;;;;;5076391;28;20374;-64
2021/03/18 00:44:01;;;;;;;47.67;23.38;;;0.00;99.90;;;;;;5074806;28;20020;-64
2021/03/18 00:46:27;;;;;;;46.20;22.77;;;0.00;99.90;;;;;;5074798;28;20028;-64
2021/03/18 00:48:52;;;;;;;43.75;22.73;;;-0.10;99.90;;;;;;5076521;28;20101;-63
2021/03/18 00:51:18;;;;;;;41.78;22.35;;;-0.10;99.90;;;;;;5076224;28;20025;-64
2021/03/18 00:53:46;;;;;;;45.35;23.85;;;-0.20;99.90;;;;;;5076483;28;20028;-64
2021/03/18 00:56:17;;;;;;;40.60;21.33;;;-0.20;99.90;;;;;;5076080;28;20082;-64
2021/03/18 00:58:44;;;;;;;47.35;22.65;;;-0.20;99.90;;;;;;5074951;28;20382;-64
2021/03/18 01:01:11;;;;;;;47.72;23.90;;;-0.20;99.90;;;;;;5076276;28;20062;-64
2021/03/18 01:03:40;;;;;;;46.17;24.02;;;-0.20;99.90;;;;;;5076250;28;20075;-64
2021/03/18 01:06:09;;;;;;;56.10;25.30;;;-0.20;99.90;;;;;;5075983;28;20029;-64
2021/03/18 01:08:36;;;;;;;44.70;23.08;;;-0.20;99.90;;;;;;5075911;28;20017;-63
2021/03/18 01:11:09;;;;;;;45.63;24.15;;;-0.20;99.90;;;;;;5074327;28;20051;-63
2021/03/18 01:13:36;;;;;;;33.67;18.58;;;-0.20;99.90;;;;;;5075887;28;20481;-64
2021/03/18 01:16:15;;;;;;;41.50;23.50;;;-0.20;99.90;;;;;;5075971;28;20477;-63
2021/03/18 01:18:44;;;;;;;44.10;22.92;;;-0.20;99.90;;;;;;5075988;28;20021;-63
2021/03/18 01:21:11;;;;;;;46.90;24.95;;;-0.20;99.90;;;;;;5075328;28;20017;-63
2021/03/18 01:23:38;;;;;;;50.38;25.10;;;-0.20;99.90;;;;;;5075335;28;20025;-63
2021/03/18 01:26:05;;;;;;;46.58;25.88;;;-0.20;99.90;;;;;;5075814;28;20048;-64
2021/03/18 01:28:31;;;;;;;50.72;23.42;;;-0.20;99.90;;;;;;5074003;28;20028;-64
2021/03/18 01:30:57;;;;;;;47.85;24.55;;;-0.20;99.90;;;;;;5075783;28;20052;-64
2021/03/18 01:33:23;;;;;;;47.55;25.00;;;-0.20;99.90;;;;;;5074250;28;20462;-64
2021/03/18 01:35:49;;;;;;;48.05;26.15;;;-0.20;99.90;;;;;;5075308;28;20017;-64
2021/03/18 01:38:15;;;;;;;48.60;24.50;;;-0.20;99.90;;;;;;5075641;28;20063;-63
2021/03/18 01:40:40;;;;;;;45.70;24.25;;;-0.20;99.90;;;;;;5073831;28;20029;-64
2021/03/18 01:43:06;;;;;;;45.20;23.92;;;-0.20;99.90;;;;;;5075251;28;20028;-64
2021/03/18 01:45:32;;;;;;;52.78;25.67;;;-0.20;99.90;;;;;;5075481;28;20028;-64
2021/03/18 01:47:57;;;;;;;44.50;24.40;;;-0.20;99.90;;;;;;5075399;28;20032;-64
2021/03/18 01:50:26;;;;;;;48.40;23.77;;;-0.20;99.90;;;;;;5073900;28;20032;-63
2021/03/18 01:52:53;;;;;;;44.15;22.90;;;-0.20;99.90;;;;;;5075279;28;20060;-63
2021/03/18 01:55:39;;;;;;;47.67;23.58;;;-0.30;99.90;;;;;;5075150;28;20032;-64
2021/03/18 01:58:05;;;;;;;44.03;23.63;;;-0.30;99.90;;;;;;5075232;28;20016;-63
2021/03/18 02:00:33;;;;;;;48.47;25.25;;;-0.30;99.90;;;;;;5075131;28;20024;-63
2021/03/18 02:02:59;;;;;;;50.58;26.20;;;-0.30;99.90;;;;;;5073928;28;20024;-64
2021/03/18 02:05:27;;;;;;;57.55;26.50;;;-0.40;99.90;;;;;;5074487;28;20094;-64
2021/03/18 02:07:53;;;;;;;55.30;26.02;;;-0.40;99.90;;;;;;5075000;28;20033;-63
2021/03/18 02:10:23;;;;;;;46.58;24.95;;;-0.40;99.90;;;;;;5074946;28;20446;-63
2021/03/18 02:12:50;;;;;;;49.65;25.55;;;-0.40;99.90;;;;;;5074942;28;20059;-64
2021/03/18 02:15:23;;;;;;;54.08;25.50;;;-0.50;99.90;;;;;;5074194;28;20489;-63
2021/03/18 02:17:59;;;;;;;49.97;25.45;;;-0.50;99.90;;;;;;5074264;28;20074;-63
2021/03/18 02:21:04;;;;;;;52.05;25.48;;;-0.50;99.90;;;;;;5073649;28;20029;-63
2021/03/18 02:26:40;;;;;;;55.70;26.88;;;-0.50;99.90;;;;;;5112265;27;20420;-64
2021/03/18 02:29:38;;;;;;;59.30;25.70;;;-0.60;99.90;;;;;;5111417;28;20031;-63
2021/03/18 02:32:27;;;;;;;53.65;26.48;;;-0.60;99.90;;;;;;5111226;28;20107;-63
2021/03/18 02:35:19;;;;;;;52.25;26.40;;;-0.60;99.90;;;;;;5110734;28;20020;-64
2021/03/18 02:37:58;;;;;;;52.53;24.77;;;-0.60;99.90;;;;;;5111241;28;20028;-63
2021/03/18 02:40:25;;;;;;;53.08;25.55;;;-0.70;99.90;;;;;;5110682;28;20023;-63
2021/03/18 02:42:56;;;;;;;51.75;26.63;;;-0.70;99.90;;;;;;5111688;28;20054;-63
2021/03/18 02:45:25;;;;;;;58.92;27.77;;;-0.70;99.90;;;;;;5111590;28;20079;-64
2021/03/18 02:47:55;;;;;;;53.88;26.33;;;-0.70;99.90;;;;;;5111654;28;20036;-63
2021/03/18 02:50:21;;;;;;;56.47;27.30;;;-0.70;99.90;;;;;;5111586;28;20020;-63
2021/03/18 02:52:49;;;;;;;55.10;26.83;;;-0.70;99.90;;;;;;5109695;28;20020;-64
2021/03/18 02:55:16;;;;;;;50.22;25.70;;;-0.70;99.90;;;;;;5111508;28;20073;-63
2021/03/18 02:57:43;;;;;;;60.10;29.23;;;-0.80;99.90;;;;;;5111433;28;20024;-63
2021/03/18 03:00:11;;;;;;;60.00;29.58;;;-0.80;99.90;;;;;;5109906;28;20023;-63
2021/03/18 03:02:38;;;;;;;55.20;28.83;;;-0.80;99.90;;;;;;5111310;28;20027;-63
2021/03/18 03:05:07;;;;;;;55.95;28.75;;;-0.80;99.90;;;;;;5110904;28;20031;-63
2021/03/18 03:07:33;;;;;;;53.05;28.75;;;-0.80;99.90;;;;;;5111267;28;20115;-63
2021/03/18 03:10:00;;;;;;;56.70;29.02;;;-0.90;99.90;;;;;;5110891;28;20113;-63
2021/03/18 03:12:28;;;;;;;60.78;29.83;;;-0.90;99.90;;;;;;5111128;28;20020;-63
2021/03/18 03:14:55;;;;;;;67.35;32.15;;;-0.90;99.90;;;;;;5109601;28;20599;-63
2021/03/18 03:17:23;;;;;;;65.25;32.85;;;-0.90;99.90;;;;;;5111033;28;20019;-64
2021/03/18 03:19:51;;;;;;;62.33;29.20;;;-1.00;99.90;;;;;;5110757;28;20376;-63
2021/03/18 03:22:18;;;;;;;58.85;29.27;;;-0.90;99.90;;;;;;5110377;28;20019;-63
2021/03/18 03:24:45;;;;;;;63.20;31.83;;;-1.00;99.90;;;;;;5110270;28;20040;-63
2021/03/18 03:27:11;;;;;;;67.13;34.58;;;-1.00;99.90;;;;;;5110572;28;20023;-63
2021/03/18 03:29:41;;;;;;;69.32;34.63;;;-1.00;99.90;;;;;;5108994;28;20103;-64
2021/03/18 03:32:08;;;;;;;61.13;32.03;;;-1.00;99.90;;;;;;5109330;28;20027;-63
2021/03/18 03:34:34;;;;;;;57.05;30.98;;;-1.00;99.90;;;;;;5110475;28;20026;-63
2021/03/18 03:37:00;;;;;;;67.72;34.53;;;-1.00;99.90;;;;;;5099972;28;20031;-63
2021/03/18 03:39:25;;;;;;;72.65;35.10;;;-1.00;99.90;;;;;;5096788;28;20020;-63
2021/03/18 03:41:51;;;;;;;79.82;37.90;;;-0.90;99.90;;;;;;5097018;28;20039;-63
2021/03/18 03:44:17;;;;;;;81.68;36.20;;;-0.80;99.90;;;;;;5096597;28;20028;-63
2021/03/18 03:46:43;;;;;;;72.95;34.05;;;-0.70;99.90;;;;;;5096937;28;20024;-63
2021/03/18 03:49:09;;;;;;;76.38;35.95;;;-0.70;99.90;;;;;;5095707;28;20020;-64
2021/03/18 03:52:03;;;;;;;70.32;35.35;;;-0.60;99.90;;;;;;5095658;28;20024;-63
2021/03/18 03:54:29;;;;;;;;;;;-0.60;99.90;;;;;;5096722;28;20023;-63
2021/03/18 03:57:06;;;;;;;81.05;36.00;;;-0.60;99.90;;;;;;5096198;28;19974;-63
2021/03/18 03:59:36;;;;;;;76.78;36.67;;;-0.50;99.90;;;;;;5096386;28;20035;-63
2021/03/18 04:02:04;;;;;;;75.70;35.15;;;-0.50;99.90;;;;;;5096629;28;20024;-63
2021/03/18 04:04:35;;;;;;;65.35;33.05;;;-0.50;99.90;;;;;;5095341;28;20028;-63
2021/03/18 04:07:04;;;;;;;61.30;33.20;;;-0.60;99.90;;;;;;5096484;28;20024;-64
2021/03/18 04:09:32;;;;;;;69.40;34.55;;;-0.60;99.90;;;;;;5096178;28;20056;-64
2021/03/18 04:12:00;;;;;;;66.32;35.42;;;-0.70;99.90;;;;;;5096411;28;20104;-63
2021/03/18 04:14:30;;;;;;;62.83;34.15;;;-0.80;99.90;;;;;;5095772;28;20031;-63
2021/03/18 04:16:59;;;;;;;65.97;34.33;;;-0.80;99.90;;;;;;5096357;28;20016;-64
2021/03/18 04:19:26;;;;;;;76.85;38.70;;;-0.80;99.90;;;;;;5096037;28;20441;-63
2021/03/18 04:21:53;;;;;;;70.82;38.35;;;-0.80;99.90;;;;;;5096267;28;20024;-63
2021/03/18 04:24:19;;;;;;;81.15;40.83;;;-0.70;99.90;;;;;;5095827;28;20052;-63
2021/03/18 04:26:46;;;;;;;82.45;40.42;;;-0.60;99.90;;;;;;5096172;28;20012;-63
2021/03/18 04:29:14;;;;;;;82.28;39.85;;;-0.50;99.90;;;;;;5095576;28;20023;-63
2021/03/18 04:31:42;;;;;;;79.00;39.22;;;-0.40;99.90;;;;;;5096042;28;20020;-63
2021/03/18 04:34:10;;;;;;;71.57;38.83;;;-0.40;99.90;;;;;;5095942;28;20103;-63
2021/03/18 04:36:37;;;;;;;74.43;38.22;;;-0.40;99.90;;;;;;5095913;28;20023;-63
2021/03/18 04:39:05;;;;;;;72.28;37.35;;;-0.30;99.90;;;;;;5095328;28;20016;-64
2021/03/18 04:41:31;;;;;;;77.50;39.55;;;-0.30;99.90;;;;;;5095824;28;20111;-64
2021/03/18 04:43:57;;;;;;;65.50;36.72;;;-0.30;99.90;;;;;;5095726;28;20020;-63
2021/03/18 04:46:24;;;;;;;67.57;37.45;;;-0.30;99.90;;;;;;5095788;28;20031;-64
2021/03/18 04:48:52;;;;;;;64.43;34.30;;;-0.30;99.90;;;;;;5094117;28;20031;-63
2021/03/18 04:51:17;;;;;;;59.03;32.70;;;-0.30;99.90;;;;;;5095640;28;20063;-63
2021/03/18 04:53:43;;;;;;;67.00;35.70;;;-0.30;99.90;;;;;;5095007;28;20028;-63
2021/03/18 04:56:09;;;;;;;60.35;32.92;;;-0.40;99.90;;;;;;5095534;28;20103;-64
2021/03/18 04:58:37;;;;;;;58.25;33.20;;;-0.40;99.90;;;;;;5095012;28;20044;-63
2021/03/18 05:01:04;;;;;;;59.95;32.83;;;-0.50;99.90;;;;;;5095453;28;20039;-64
2021/03/18 05:03:33;;;;;;;59.60;34.08;;;-0.50;99.90;;;;;;5095123;28;20020;-64
2021/03/18 05:06:00;;;;;;;68.10;34.90;;;-0.50;99.90;;;;;;5095014;28;20028;-64
2021/03/18 05:08:28;;;;;;;60.85;35.42;;;-0.50;99.90;;;;;;5095289;28;20024;-64
2021/03/18 05:10:55;;;;;;;65.25;36.42;;;-0.50;99.90;;;;;;5093452;28;20070;-64
2021/03/18 05:13:21;;;;;;;70.50;36.80;;;-0.50;99.90;;;;;;5094910;28;20548;-63
2021/03/18 05:15:50;;;;;;;66.13;36.13;;;-0.40;99.90;;;;;;5093723;28;20483;-64
2021/03/18 05:18:16;;;;;;;69.82;38.30;;;-0.40;99.90;;;;;;5093693;28;20055;-63
2021/03/18 05:20:43;;;;;;;69.63;37.53;;;-0.40;99.90;;;;;;5094807;28;20050;-64
2021/03/18 05:23:11;;;;;;;71.05;39.53;;;-0.40;99.90;;;;;;5095049;28;20439;-63
2021/03/18 05:25:37;;;;;;;74.32;42.03;;;-0.20;99.90;;;;;;5094470;28;20039;-63
2021/03/18 05:28:04;;;;;;;72.68;40.20;;;-0.10;99.90;;;;;;5093194;28;20039;-64
2021/03/18 05:30:30;;;;;;;94.13;51.90;;;-0.10;99.90;;;;;;5094685;28;20055;-63
2021/03/18 05:32:58;;;;;;;84.88;46.30;;;-0.10;99.90;;;;;;5094786;28;20020;-63
2021/03/18 05:35:24;;;;;;;78.35;43.05;;;-0.10;99.90;;;;;;5094774;28;20024;-63
2021/03/18 05:37:50;;;;;;;78.80;45.40;;;0.00;99.90;;;;;;5094791;28;20024;-63
2021/03/18 05:40:17;;;;;;;83.60;45.00;;;0.10;99.90;;;;;;5094219;28;20035;-63
2021/03/18 05:42:42;;;;;;;72.38;42.10;;;0.10;99.90;;;;;;5094423;28;20479;-63
2021/03/18 05:45:11;;;;;;;73.88;40.92;;;0.20;99.90;;;;;;5094326;28;20024;-64
2021/03/18 05:47:37;;;;;;;75.15;41.88;;;0.30;99.90;;;;;;5094099;28;20016;-64
2021/03/18 05:50:07;;;;;;;78.93;42.20;;;0.30;99.90;;;;;;5094344;28;20033;-63
2021/03/18 05:52:34;;;;;;;67.47;39.13;;;0.40;99.90;;;;;;5094289;28;20032;-63
2021/03/18 05:55:01;;;;;;;67.97;38.55;;;0.40;99.90;;;;;;5094471;28;20364;-63
2021/03/18 05:57:27;;;;;;;73.68;38.47;;;0.50;99.90;;;;;;5094447;28;20024;-63
2021/03/18 05:59:54;;;;;;;84.53;42.38;;;0.60;99.90;;;;;;5092749;28;20423;-63
2021/03/18 06:02:19;;;;;;;85.57;40.78;;;0.70;99.90;;;;;;5094374;28;20027;-63
2021/03/18 06:04:45;;;;;;;75.50;37.85;;;0.80;99.90;;;;;;5094293;28;20032;-63
2021/03/18 06:07:12;;;;;;;79.05;39.00;;;0.90;99.90;;;;;;5094303;28;20468;-63
2021/03/18 06:09:37;;;;;;;93.07;48.50;;;0.90;99.90;;;;;;5094050;28;20103;-63
2021/03/18 06:12:03;;;;;;;85.90;48.45;;;1.00;99.90;;;;;;5093959;28;20443;-63
2021/03/18 06:14:30;;;;;;;80.40;41.47;;;1.00;99.90;;;;;;5093988;28;20024;-64
2021/03/18 06:16:57;;;;;;;71.70;38.08;;;1.10;99.90;;;;;;5094188;28;20031;-63
2021/03/18 06:19:22;;;;;;;71.32;34.42;;;1.20;99.90;;;;;;5094204;28;20021;-64
2021/03/18 06:21:55;;;;;;;72.60;34.53;;;1.20;99.90;;;;;;5092351;28;20032;-64
2021/03/18 06:24:23;;;;;;;82.78;33.10;;;1.30;99.90;;;;;;5093816;28;20384;-64
2021/03/18 06:26:49;;;;;;;114.68;54.65;;;1.30;99.90;;;;;;5093575;28;20051;-64
2021/03/18 06:29:36;;;;;;;113.25;47.20;;;1.20;99.90;;;;;;5092229;28;20020;-62
2021/03/18 06:32:20;;;;;;;104.22;44.10;;;1.30;99.90;;;;;;5094059;28;20031;-62
2021/03/18 06:34:50;;;;;;;112.07;33.92;;;1.40;99.90;;;;;;5092939;28;20024;-62
2021/03/18 06:37:38;;;;;;;98.70;33.30;;;1.40;99.90;;;;;;5094054;28;20570;-63
2021/03/18 06:40:24;;;;;;;104.13;32.45;;;1.40;99.90;;;;;;5093445;28;20024;-62
2021/03/18 06:42:55;;;;;;;97.85;31.30;;;1.50;99.90;;;;;;5093668;28;20034;-63
2021/03/18 06:45:21;;;;;;;92.65;33.10;;;1.40;99.90;;;;;;5093610;28;20020;-63
2021/03/18 06:47:50;;;;;;;94.00;34.13;;;1.40;99.90;;;;;;5093913;28;20038;-63
2021/03/18 06:50:20;;;;;;;113.28;34.90;;;1.40;99.90;;;;;;5093329;28;20473;-62
2021/03/18 06:52:46;;;;;;;124.25;35.17;;;1.40;99.90;;;;;;5093290;28;20115;-63
2021/03/18 06:55:25;;;;;;;101.47;36.75;;;1.50;99.90;;;;;;5092544;28;20059;-63
2021/03/18 06:58:13;;;;;;;111.45;36.97;;;1.60;99.90;;;;;;5093711;28;20020;-63
2021/03/18 07:00:38;;;;;;;110.20;36.15;;;1.60;99.90;;;;;;5093727;28;20038;-63
2021/03/18 07:03:07;;;;;;;89.15;35.03;;;1.60;99.90;;;;;;5093756;28;20148;-63
2021/03/18 07:05:38;;;;;;;89.53;33.03;;;1.70;99.90;;;;;;5093166;28;20453;-63
2021/03/18 07:08:04;;;;;;;98.97;32.33;;;1.80;99.90;;;;;;5093610;28;20027;-63
2021/03/18 07:10:33;;;;;;;88.28;29.00;;;1.80;99.90;;;;;;5093371;28;20031;-63
2021/03/18 07:13:16;;;;;;;99.75;30.02;;;1.90;99.90;;;;;;5097169;28;20012;-62
2021/03/18 07:15:42;;;;;;;114.47;37.58;;;2.00;99.90;;;;;;5095984;28;20028;-63
2021/03/18 07:18:09;;;;;;;101.68;30.45;;;2.00;99.90;;;;;;5097124;28;20173;-63
2021/03/18 07:20:35;;;;;;;123.18;41.65;;;2.00;99.90;;;;;;5095906;28;20028;-63
2021/03/18 07:23:12;;;;;;;102.57;47.38;;;2.10;99.90;;;;;;5096746;28;20035;-62
2021/03/18 07:25:46;;;;;;;96.40;31.10;;;2.20;99.90;;;;;;5096467;28;20030;-63
2021/03/18 07:28:14;;;;;;;89.57;31.83;;;2.30;99.90;;;;;;5096935;28;20024;-63
2021/03/18 07:30:42;;;;;;;96.72;31.40;;;2.30;99.90;;;;;;5096953;28;20103;-63
2021/03/18 07:33:08;;;;;;;102.50;34.38;;;2.30;99.90;;;;;;5097136;28;20479;-63
2021/03/18 07:35:35;;;;;;;82.60;30.08;;;2.20;99.90;;;;;;5097117;28;20032;-65
2021/03/18 07:38:01;;;;;;;111.53;38.75;;;2.20;99.90;;;;;;5097038;28;20020;-65
2021/03/18 07:40:28;;;;;;;112.47;39.13;;;2.20;99.90;;;;;;5096034;28;20039;-65
2021/03/18 07:42:55;;;;;;;105.57;39.60;;;2.20;99.90;;;;;;5091758;28;20032;-65
2021/03/18 07:45:24;;;;;;;140.45;55.53;;;2.20;99.90;;;;;;5096401;28;20384;-64
2021/03/18 07:47:50;;;;;;;128.75;51.80;;;2.30;99.90;;;;;;5095516;28;20025;-64
2021/03/18 07:50:19;;;;;;;81.85;29.80;;;2.30;99.90;;;;;;5095646;28;20024;-63
2021/03/18 07:52:49;;;;;;;79.05;28.67;;;2.30;99.90;;;;;;5095988;28;20158;-62
2021/03/18 07:55:17;;;;;;;78.28;31.50;;;2.30;99.90;;;;;;5095634;28;20020;-62
2021/03/18 07:57:45;;;;;;;80.25;32.30;;;2.30;99.90;;;;;;5095338;28;20055;-64
2021/03/18 08:00:14;;;;;;;81.18;30.27;;;2.40;99.90;;;;;;5094792;28;20499;-64
2021/03/18 08:02:40;;;;;;;76.97;28.38;;;2.50;99.90;;;;;;5095182;28;20040;-64
2021/03/18 08:05:06;;;;;;;69.95;29.00;;;2.40;99.90;;;;;;5095377;28;20024;-64
2021/03/18 08:07:49;;;;;;;81.97;30.95;;;2.40;99.90;;;;;;5095881;28;20020;-64
2021/03/18 08:13:00;;;;;;;69.82;30.52;;;2.60;99.90;;;;;;5111290;27;20348;-64
2021/03/18 08:15:44;;;;;;;72.03;32.03;;;2.70;99.90;;;;;;5111243;28;20103;-63
2021/03/18 08:26:08;;;;;;;106.50;49.78;;;2.80;99.90;;;;;;5109594;27;20417;-64
2021/03/18 08:28:56;;;;;;;69.47;29.70;;;2.90;99.90;;;;;;5108994;28;20020;-64
2021/03/18 08:31:24;;;;;;;63.90;27.85;;;3.00;99.90;;;;;;5073182;28;20111;-64
2021/03/18 08:33:55;;;;;;;67.07;27.60;;;2.90;99.90;;;;;;5073701;28;20016;-64
2021/03/18 08:36:30;;;;;;;67.22;28.35;;;2.90;99.90;;;;;;5090552;28;20362;-65
2021/03/18 08:38:58;;;;;;;68.75;28.98;;;2.90;99.90;;;;;;5089316;28;20032;-64
2021/03/18 08:44:31;;;;;;;73.65;28.92;;;3.00;99.90;;;;;;5110657;27;20883;-64
2021/03/18 08:47:09;;;;;;;70.80;29.40;;;3.10;99.90;;;;;;5111404;28;20028;-64
2021/03/18 08:52:20;;;;;;;46.63;23.38;;;3.10;99.90;;;;;;5111801;27;20397;-64
2021/03/18 08:57:26;;;;;;;55.67;22.77;;;3.10;99.90;;;;;;5110545;27;20320;-64
2021/03/18 08:59:55;;;;;;;50.13;23.50;;;3.20;99.90;;;;;;5111472;28;20392;-64
2021/03/18 09:02:29;;;;;;;46.80;22.25;;;3.30;99.90;;;;;;5110746;28;20079;-64
2021/03/18 09:04:56;;;;;;;42.38;21.80;;;3.40;99.90;;;;;;5110102;28;20027;-64
2021/03/18 09:07:24;;;;;;;40.65;20.35;;;3.50;99.90;;;;;;5109705;28;20016;-64
2021/03/18 09:10:12;;;;;;;41.50;21.13;;;3.50;99.90;;;;;;5107138;28;20024;-64
2021/03/18 09:12:55;;;;;;;50.60;25.65;;;3.60;99.90;;;;;;5108360;28;20019;-64
2021/03/18 09:18:26;;;;;;;43.15;21.98;;;3.90;99.90;;;;;;5088417;28;20876;-65
2021/03/18 09:21:03;;;;;;;38.63;20.05;;;3.80;99.90;;;;;;5070321;28;20027;-65
2021/03/18 09:23:31;;;;;;;37.50;18.77;;;3.70;99.90;;;;;;5085418;28;20123;-65
2021/03/18 09:25:59;;;;;;;37.13;19.45;;;3.70;99.90;;;;;;5069164;28;20496;-63
2021/03/18 09:28:25;;;;;;;31.67;16.83;;;3.80;99.90;;;;;;5051153;28;20477;-65
2021/03/18 09:30:55;;;;;;;28.88;16.17;;;3.90;99.90;;;;;;5069334;28;20111;-65
2021/03/18 09:33:25;;;;;;;31.38;17.25;;;3.90;99.90;;;;;;5069046;28;20040;-65
2021/03/18 09:35:54;;;;;;;29.90;16.67;;;4.10;99.90;;;;;;5068748;28;20055;-63
2021/03/18 09:38:25;;;;;;;35.05;16.35;;;4.30;99.90;;;;;;5066456;28;20016;-64
2021/03/18 09:40:52;;;;;;;34.67;18.23;;;4.30;99.90;;;;;;5069459;28;20024;-64
2021/03/18 09:43:19;;;;;;;31.42;17.58;;;4.40;99.90;;;;;;5069455;28;20016;-65
2021/03/18 09:45:50;;;;;;;37.47;18.00;;;4.30;99.90;;;;;;5051618;28;20492;-65
2021/03/18 09:48:26;;;;;;;32.63;17.40;;;4.40;99.90;;;;;;5069250;28;20102;-64
2021/03/18 09:50:53;;;;;;;32.63;17.08;;;4.20;99.90;;;;;;5069344;28;20020;-65
2021/03/18 09:53:19;;;;;;;32.85;16.15;;;4.40;99.90;;;;;;5051230;28;20048;-64
2021/03/18 09:55:45;;;;;;;33.83;17.92;;;4.40;99.90;;;;;;5069386;28;20052;-65
2021/03/18 09:58:14;;;;;;;31.33;16.67;;;4.50;99.90;;;;;;5069069;28;20401;-65
2021/03/18 10:00:40;;;;;;;38.67;18.17;;;4.60;99.90;;;;;;5068289;28;20025;-65
2021/03/18 10:03:07;;;;;;;35.22;19.00;;;4.50;99.90;;;;;;5068510;28;20039;-65
2021/03/18 10:05:33;;;;;;;37.97;19.65;;;4.50;99.90;;;;;;5084425;28;20354;-65
2021/03/18 10:07:59;;;;;;;32.92;17.90;;;4.50;99.90;;;;;;5045094;28;20033;-65
2021/03/18 10:10:25;;;;;;;28.92;15.80;;;4.50;99.90;;;;;;5050610;28;20151;-65
2021/03/18 10:12:52;;;;;;;27.17;15.88;;;4.60;99.90;;;;;;5068245;28;20533;-63
2021/03/18 10:15:19;;;;;;;32.75;16.88;;;4.50;99.90;;;;;;5076850;28;20115;-65
2021/03/18 10:17:46;;;;;;;29.92;16.83;;;4.70;99.90;;;;;;5068488;28;20039;-62
2021/03/18 10:20:33;;;;;;;32.97;17.73;;;4.70;99.90;;;;;;5050846;28;20489;-63
2021/03/18 10:23:09;;;;;;;35.38;17.98;;;4.60;99.90;;;;;;5050683;28;20028;-62
2021/03/18 10:25:37;;;;;;;35.33;17.73;;;4.60;99.90;;;;;;5068503;28;20028;-65
2021/03/18 10:28:09;;;;;;;38.45;19.40;;;4.50;99.90;;;;;;5045315;28;20394;-64
2021/03/18 10:30:40;;;;;;;39.05;19.45;;;4.50;99.90;;;;;;5055415;28;20130;-64
2021/03/18 10:33:16;;;;;;;43.17;20.98;;;4.50;99.90;;;;;;5056081;28;20033;-64
2021/03/18 10:35:46;;;;;;;42.17;18.87;;;4.50;99.90;;;;;;5037779;28;20522;-64
2021/03/18 10:38:15;;;;;;;43.25;21.88;;;4.60;99.90;;;;;;5018114;28;20029;-64
2021/03/18 10:40:46;;;;;;;31.15;16.15;;;4.60;99.90;;;;;;5045997;28;20152;-64
2021/03/18 10:43:33;;;;;;;35.42;17.35;;;4.60;99.90;;;;;;5052892;28;20017;-64
2021/03/18 10:46:02;;;;;;;33.22;16.25;;;4.60;99.90;;;;;;5037440;28;20033;-64
2021/03/18 10:48:31;;;;;;;29.70;15.77;;;4.80;99.90;;;;;;5054602;28;20039;-64
2021/03/18 10:51:14;;;;;;;29.73;15.68;;;4.80;99.90;;;;;;5054713;28;20029;-64
2021/03/18 10:53:44;;;;;;;31.15;15.68;;;4.80;99.90;;;;;;5059801;28;20028;-64
2021/03/18 10:58:48;;;;;;;36.85;17.48;;;4.90;99.90;;;;;;5111067;27;20367;-62
2021/03/18 11:01:22;;;;;;;39.10;17.23;;;5.00;99.90;;;;;;5093089;28;20081;-64
2021/03/18 11:03:49;;;;;;;33.95;16.63;;;4.90;99.90;;;;;;5106041;28;20012;-62
2021/03/18 11:06:17;;;;;;;33.13;17.15;;;4.90;99.90;;;;;;5094892;28;20024;-65
2021/03/18 11:08:46;;;;;;;35.28;17.00;;;4.80;99.90;;;;;;5092166;28;20032;-64
2021/03/18 11:11:15;;;;;;;35.53;16.95;;;4.70;99.90;;;;;;5089564;28;20016;-65
2021/03/18 11:13:42;;;;;;;33.83;16.85;;;4.70;99.90;;;;;;5089378;28;20039;-64
2021/03/18 11:16:10;;;;;;;37.47;16.65;;;4.60;99.90;;;;;;5089120;28;20107;-64
2021/03/18 11:18:42;;;;;;;34.72;15.90;;;4.70;99.90;;;;;;5090943;28;20063;-65
2021/03/18 11:21:26;;;;;;;42.03;16.30;;;4.70;99.90;;;;;;5092363;28;20027;-64
2021/03/18 11:23:55;;;;;;;39.63;17.95;;;4.90;99.90;;;;;;5108744;28;20073;-64
2021/03/18 11:26:24;;;;;;;30.27;14.30;;;5.40;99.90;;;;;;5092569;28;20107;-65
2021/03/18 11:28:56;;;;;;;29.85;14.10;;;5.50;99.90;;;;;;5089348;28;20545;-63
2021/03/18 11:31:25;;;;;;;29.98;14.18;;;5.70;99.90;;;;;;5089144;28;20016;-62
2021/03/18 11:33:51;;;;;;;29.38;13.73;;;5.70;99.90;;;;;;5089062;28;20096;-65
2021/03/18 11:36:17;;;;;;;29.83;16.17;;;5.70;99.90;;;;;;5088806;28;20461;-65
2021/03/18 11:38:43;;;;;;;31.60;15.45;;;5.70;99.90;;;;;;5087951;28;20040;-62
2021/03/18 11:41:09;;;;;;;31.13;16.00;;;5.70;99.90;;;;;;5089843;28;20020;-65
2021/03/18 11:43:35;;;;;;;27.10;13.57;;;5.80;99.90;;;;;;5089319;28;20453;-65
2021/03/18 11:46:01;;;;;;;29.02;14.35;;;6.10;99.90;;;;;;5075132;28;20027;-65
2021/03/18 11:48:27;;;;;;;28.33;14.80;;;5.90;99.90;;;;;;5089642;28;20122;-63
2021/03/18 11:50:54;;;;;;;30.50;15.27;;;6.00;99.90;;;;;;5090477;28;20062;-63
2021/03/18 11:53:20;;;;;;;30.48;16.05;;;6.00;99.90;;;;;;5089678;28;20021;-63
2021/03/18 11:55:46;;;;;;;32.83;14.98;;;5.90;99.90;;;;;;5103456;28;20032;-62
2021/03/18 11:58:11;;;;;;;27.95;14.48;;;5.80;99.90;;;;;;5108964;28;20131;-63
2021/03/18 12:00:38;;;;;;;29.05;13.82;;;5.60;99.90;;;;;;5088713;28;20480;-63
2021/03/18 12:03:07;;;;;;;33.78;14.82;;;5.50;99.90;;;;;;5095119;28;20024;-62
2021/03/18 12:05:33;;;;;;;33.72;14.65;;;5.50;99.90;;;;;;5108925;28;20024;-63
2021/03/18 12:07:59;;;;;;;30.27;14.73;;;5.70;99.90;;;;;;5084251;28;20032;-63
2021/03/18 12:10:24;;;;;;;28.92;13.35;;;5.80;99.90;;;;;;5095003;28;20111;-63
2021/03/18 12:12:50;;;;;;;25.90;12.70;;;5.90;99.90;;;;;;5081073;28;20060;-63
2021/03/18 12:15:16;;;;;;;27.45;13.63;;;6.00;99.90;;;;;;5076535;28;20489;-63
2021/03/18 12:17:43;;;;;;;27.23;13.48;;;5.90;99.90;;;;;;5079630;28;20389;-63
2021/03/18 12:20:14;;;;;;;30.50;14.25;;;5.80;99.90;;;;;;5086038;28;20028;-63
2021/03/18 12:22:39;;;;;;;28.25;13.73;;;5.80;99.90;;;;;;5074710;28;20025;-63
2021/03/18 12:25:06;;;;;;;34.20;14.40;;;6.00;99.90;;;;;;5082985;28;20028;-62
2021/03/18 12:27:33;;;;;;;28.80;13.10;;;6.30;99.90;;;;;;5075228;28;20020;-65
2021/03/18 12:29:59;;;;;;;25.85;11.48;;;6.60;99.90;;;;;;5073571;28;20029;-64
2021/03/18 12:32:24;;;;;;;29.25;12.93;;;6.50;99.90;;;;;;5085875;28;20027;-65
2021/03/18 12:34:50;;;;;;;30.60;13.77;;;6.70;99.90;;;;;;5087945;28;20035;-65
2021/03/18 12:37:17;;;;;;;28.60;12.65;;;6.90;99.90;;;;;;5079334;28;20447;-65
2021/03/18 12:39:44;;;;;;;29.27;11.80;;;7.00;99.90;;;;;;5084808;28;20108;-65
2021/03/18 12:42:11;;;;;;;30.42;11.95;;;7.20;99.90;;;;;;5093664;28;20069;-62
2021/03/18 12:44:37;;;;;;;21.15;10.32;;;7.20;99.90;;;;;;5082277;28;20457;-65
2021/03/18 12:47:03;;;;;;;23.83;10.38;;;7.10;99.90;;;;;;5094711;28;20373;-65
2021/03/18 12:49:29;;;;;;;22.05;8.52;;;7.20;99.90;;;;;;5076357;28;20024;-65
2021/03/18 12:51:55;;;;;;;16.50;8.20;;;7.10;99.90;;;;;;5076098;28;20078;-63
2021/03/18 12:54:20;;;;;;;16.60;8.68;;;7.10;99.90;;;;;;5085824;28;20121;-64
2021/03/18 12:56:46;;;;;;;16.02;8.90;;;7.10;99.90;;;;;;5085899;28;20040;-63
2021/03/18 12:59:12;;;;;;;19.60;8.52;;;7.30;99.90;;;;;;5075008;28;20056;-63
2021/03/18 13:01:37;;;;;;;24.30;10.10;;;7.10;99.90;;;;;;5084408;28;20406;-63
2021/03/18 13:04:03;;;;;;;16.77;8.90;;;7.10;99.90;;;;;;5076439;28;20024;-63
2021/03/18 13:06:29;;;;;;;18.40;9.15;;;7.20;99.90;;;;;;5079736;28;20386;-63
2021/03/18 13:08:54;;;;;;;18.30;10.07;;;7.30;99.90;;;;;;5093911;28;20069;-63